createdAt,value
2019-05-26T04:31:09.847Z,78.50
2019-05-26T04:33:38.305Z,78.50
2019-05-26T04:36:06.744Z,78.50
2019-05-26T04:38:35.390Z,78.60
2019-05-26T04:41:03.899Z,78.60
2019-05-26T04:43:32.464Z,78.50
2019-05-26T04:46:00.913Z,78.50
2019-05-26T04:48:29.362Z,78.50
2019-05-26T04:50:57.908Z,78.40
2019-05-26T04:53:26.361Z,78.30
2019-05-26T04:55:54.906Z,77.90
2019-05-26T04:58:23.565Z,77.60
2019-05-26T05:00:52.057Z,77.60
2019-05-26T05:03:20.514Z,77.70
2019-05-26T05:05:49.013Z,77.60
2019-05-26T05:08:17.463Z,77.70
2019-05-26T05:10:45.900Z,78.70
2019-05-26T05:13:14.350Z,79.00
2019-05-26T05:15:42.771Z,79.10
2019-05-26T05:18:11.215Z,78.50
2019-05-26T05:20:40.110Z,78.50
2019-05-26T05:23:08.634Z,78.00
2019-05-26T05:25:37.154Z,77.90
2019-05-26T05:28:05.587Z,77.70
2019-05-26T05:30:34.120Z,76.90
2019-05-26T05:33:02.607Z,76.40
2019-05-26T05:35:31.038Z,75.60
2019-05-26T05:37:59.471Z,75.40
2019-05-26T05:40:27.902Z,74.90
2019-05-26T05:42:56.436Z,74.60
2019-05-26T05:45:24.894Z,74.40
2019-05-26T05:47:53.447Z,74.20
2019-05-26T05:50:22.006Z,74.20
2019-05-26T05:52:50.659Z,73.90
2019-05-26T05:55:19.200Z,73.70
2019-05-26T05:57:47.728Z,73.30
2019-05-26T06:00:16.697Z,73.40
2019-05-26T06:02:45.137Z,73.00
2019-05-26T06:05:14.079Z,72.80
2019-05-26T06:07:42.702Z,72.80
2019-05-26T06:10:12.208Z,72.70
2019-05-26T06:12:40.708Z,72.30
2019-05-26T06:15:14.540Z,72.20
2019-05-26T06:17:45.735Z,72.10
2019-05-26T06:20:14.899Z,71.80
2019-05-26T06:22:43.392Z,71.70
2019-05-26T06:25:12.038Z,71.80
2019-05-26T06:27:40.528Z,72.90
2019-05-26T06:30:10.200Z,72.40
2019-05-26T06:32:38.733Z,72.50
2019-05-26T06:35:07.599Z,73.40
2019-05-26T06:37:36.048Z,72.50
2019-05-26T06:40:07.535Z,72.30
2019-05-26T06:42:36.025Z,71.90
2019-05-26T06:45:06.260Z,71.50
2019-05-26T06:47:34.699Z,70.80
2019-05-26T06:50:04.757Z,71.10
2019-05-26T06:52:33.184Z,70.60
2019-05-26T06:55:01.620Z,70.60
2019-05-26T06:57:30.100Z,70.10
2019-05-26T06:59:58.531Z,69.50
2019-05-26T07:02:26.968Z,68.30
2019-05-26T07:04:55.396Z,68.70
2019-05-26T07:07:23.824Z,68.50
2019-05-26T07:09:52.243Z,68.60
2019-05-26T07:12:20.664Z,68.20
2019-05-26T07:14:49.152Z,67.70
2019-05-26T07:17:20.448Z,67.50
2019-05-26T07:19:47.774Z,67.10
2019-05-26T07:22:16.213Z,66.90
2019-05-26T07:24:44.732Z,65.80
2019-05-26T07:27:13.183Z,65.30
2019-05-26T07:29:41.688Z,64.60
2019-05-26T07:32:10.116Z,63.60
2019-05-26T07:34:38.650Z,63.70
2019-05-26T07:37:07.152Z,64.00
2019-05-26T07:39:35.676Z,63.80
2019-05-26T07:42:10.718Z,63.70
2019-05-26T07:44:34.775Z,63.10
2019-05-26T07:47:03.316Z,61.80
2019-05-26T07:49:31.798Z,61.50
2019-05-26T07:52:02.948Z,61.40
2019-05-26T07:54:31.519Z,61.20
2019-05-26T07:56:59.943Z,60.10
2019-05-26T07:59:28.420Z,60.40
2019-05-26T08:01:56.922Z,60.10
2019-05-26T08:04:25.388Z,59.20
2019-05-26T08:06:53.813Z,58.10
2019-05-26T08:09:22.279Z,58.30
2019-05-26T08:11:50.761Z,57.90
2019-05-26T08:14:19.187Z,57.80
2019-05-26T08:16:47.623Z,56.90
2019-05-26T08:19:16.066Z,56.00
2019-05-26T08:21:44.583Z,54.30
2019-05-26T08:24:13.022Z,54.40
2019-05-26T08:26:41.464Z,54.00
2019-05-26T08:29:09.888Z,53.70
2019-05-26T08:31:38.459Z,53.50
2019-05-26T08:34:07.035Z,53.70
2019-05-26T08:36:35.552Z,53.20
2019-05-26T08:39:07.101Z,52.30
2019-05-26T08:41:35.629Z,51.60
2019-05-26T08:44:05.230Z,50.30
2019-05-26T08:46:33.862Z,50.50
2019-05-26T08:49:02.305Z,50.30
2019-05-26T08:51:30.818Z,51.20
2019-05-26T08:53:59.395Z,50.40
2019-05-26T08:56:27.849Z,49.70
2019-05-26T08:58:56.352Z,50.10
2019-05-26T09:01:24.827Z,49.50
2019-05-26T09:03:53.321Z,48.70
2019-05-26T09:06:21.776Z,48.40
2019-05-26T09:08:50.352Z,49.20
2019-05-26T09:11:18.816Z,49.10
2019-05-26T09:13:47.245Z,48.40
2019-05-26T09:16:15.715Z,47.30
2019-05-26T09:18:44.145Z,46.90
2019-05-26T09:21:12.614Z,46.60
2019-05-26T09:23:41.035Z,47.20
2019-05-26T09:26:09.466Z,46.90
2019-05-26T09:28:37.895Z,46.10
2019-05-26T09:31:06.332Z,45.10
2019-05-26T09:33:34.760Z,44.70
2019-05-26T09:36:03.206Z,44.20
2019-05-26T09:38:31.811Z,42.10
2019-05-26T09:41:00.233Z,40.40
2019-05-26T09:43:29.133Z,40.30
2019-05-26T09:45:57.696Z,34.60
2019-05-26T09:48:26.344Z,36.50
2019-05-26T09:50:55.081Z,38.70
2019-05-26T09:53:24.176Z,39.50
2019-05-26T09:55:53.011Z,37.70
2019-05-26T09:58:21.932Z,36.60
2019-05-26T10:00:50.651Z,36.60
2019-05-26T10:03:20.886Z,36.60
2019-05-26T10:05:49.380Z,37.80
2019-05-26T10:08:17.889Z,37.60
2019-05-26T10:10:46.335Z,37.70
2019-05-26T10:13:14.768Z,37.80
2019-05-26T10:15:43.211Z,35.90
2019-05-26T10:18:12.156Z,34.70
2019-05-26T10:20:41.038Z,34.40
2019-05-26T10:23:09.850Z,33.50
2019-05-26T10:25:38.830Z,34.30
2019-05-26T10:28:08.221Z,33.20
2019-05-26T10:30:37.429Z,32.50
2019-05-26T10:33:06.301Z,32.60
2019-05-26T10:35:37.002Z,32.00
2019-05-26T10:38:06.150Z,31.10
2019-05-26T10:40:34.938Z,32.10
2019-05-26T10:43:03.697Z,31.90
2019-05-26T10:45:34.351Z,29.70
2019-05-26T10:48:02.824Z,30.70
2019-05-26T10:50:31.425Z,31.30
2019-05-26T10:53:00.113Z,29.80
2019-05-26T10:55:28.873Z,29.40
2019-05-26T10:57:57.684Z,29.40
2019-05-26T11:00:26.575Z,29.30
2019-05-26T11:02:55.280Z,28.90
2019-05-26T11:05:24.108Z,28.80
2019-05-26T11:07:52.598Z,28.50
2019-05-26T11:10:21.237Z,28.40
2019-05-26T11:12:49.656Z,28.50
2019-05-26T11:15:18.319Z,28.30
2019-05-26T11:17:46.744Z,28.90
2019-05-26T11:20:16.984Z,28.60
2019-05-26T11:22:45.483Z,28.70
2019-05-26T11:25:14.619Z,29.50
2019-05-26T11:27:43.127Z,28.80
2019-05-26T11:30:13.494Z,28.20
2019-05-26T11:32:41.938Z,28.10
2019-05-26T11:35:10.893Z,27.30
2019-05-26T11:37:39.341Z,27.80
2019-05-26T11:40:08.724Z,28.20
2019-05-26T11:42:38.197Z,30.20
2019-05-26T11:45:08.539Z,30.80
2019-05-26T11:47:37.106Z,32.90
2019-05-26T11:50:09.142Z,34.40
2019-05-26T11:52:37.580Z,35.20
2019-05-26T11:55:07.792Z,37.20
2019-05-26T11:57:37.182Z,37.60
2019-05-26T12:00:07.952Z,37.90
2019-05-26T12:02:36.883Z,38.60
2019-05-26T12:05:07.924Z,39.50
2019-05-26T12:07:36.472Z,38.30
2019-05-26T12:10:06.758Z,38.70
2019-05-26T12:12:35.188Z,38.30
2019-05-26T12:15:05.425Z,39.00
2019-05-26T12:17:33.865Z,38.60
2019-05-26T12:20:05.069Z,39.10
2019-05-26T12:22:32.725Z,38.50
2019-05-26T12:25:01.153Z,38.20
2019-05-26T12:27:29.663Z,37.30
2019-05-26T12:29:58.174Z,37.60
2019-05-26T12:32:26.605Z,37.80
2019-05-26T12:34:55.082Z,36.50
2019-05-26T12:37:23.509Z,38.20
2019-05-26T12:39:51.953Z,37.70
2019-05-26T12:42:20.411Z,37.70
2019-05-26T12:44:50.096Z,37.70
2019-05-26T12:47:18.749Z,36.60
2019-05-26T12:49:47.181Z,37.00
2019-05-26T12:52:16.380Z,37.00
2019-05-26T12:54:47.269Z,36.70
2019-05-26T12:57:15.696Z,36.40
2019-05-26T12:59:44.125Z,36.00
2019-05-26T13:02:12.567Z,35.50
2019-05-26T13:04:40.989Z,35.20
2019-05-26T13:07:09.436Z,35.30
2019-05-26T13:09:37.860Z,34.90
2019-05-26T13:12:06.292Z,33.70
2019-05-26T13:14:34.811Z,32.50
2019-05-26T13:17:03.251Z,32.20
2019-05-26T13:19:31.764Z,32.80
2019-05-26T13:22:00.364Z,32.50
2019-05-26T13:24:28.857Z,31.10
2019-05-26T13:26:57.316Z,30.70
2019-05-26T13:29:26.281Z,29.90
2019-05-26T13:31:54.845Z,31.20
2019-05-26T13:34:23.272Z,31.10
2019-05-26T13:36:51.700Z,31.00
2019-05-26T13:39:20.124Z,30.50
2019-05-26T13:41:48.607Z,29.80
2019-05-26T13:44:17.056Z,29.60
2019-05-26T13:46:45.482Z,29.80
2019-05-26T13:49:15.289Z,30.10
2019-05-26T13:51:43.731Z,30.20
2019-05-26T13:54:12.386Z,30.00
2019-05-26T13:56:40.815Z,29.10
2019-05-26T13:59:09.332Z,29.60
2019-05-26T14:01:37.764Z,29.80
2019-05-26T14:04:06.212Z,31.60
2019-05-26T14:06:34.734Z,31.90
2019-05-26T14:09:03.313Z,32.10
2019-05-26T14:11:31.741Z,32.10
2019-05-26T14:14:00.181Z,32.00
2019-05-26T14:16:29.843Z,33.10
2019-05-26T14:18:59.825Z,33.50
2019-05-26T14:21:28.423Z,33.80
2019-05-26T14:23:56.912Z,33.90
2019-05-26T14:26:25.499Z,33.00
2019-05-26T14:28:54.273Z,32.10
2019-05-26T14:31:22.920Z,33.10
2019-05-26T14:33:51.344Z,32.90
2019-05-26T14:36:19.774Z,31.90
2019-05-26T14:38:48.201Z,31.80
2019-05-26T14:41:16.668Z,32.50
2019-05-26T14:43:45.130Z,32.10
2019-05-26T14:46:13.560Z,32.90
2019-05-26T14:48:41.983Z,32.90
2019-05-26T14:51:10.435Z,32.90
2019-05-26T14:53:38.857Z,33.10
2019-05-26T14:56:07.285Z,33.20
2019-05-26T14:58:37.818Z,34.00
2019-05-26T15:01:06.243Z,34.00
2019-05-26T15:03:34.667Z,34.30
2019-05-26T15:06:05.856Z,33.60
2019-05-26T15:08:33.252Z,34.00
2019-05-26T15:11:01.680Z,33.90
2019-05-26T15:13:30.212Z,34.30
2019-05-26T15:16:09.188Z,35.20
2019-05-26T15:18:28.825Z,35.10
2019-05-26T15:20:57.253Z,35.60
2019-05-26T15:23:25.699Z,35.30
2019-05-26T15:25:54.181Z,35.00
2019-05-26T15:28:23.540Z,35.10
2019-05-26T15:30:51.970Z,34.80
2019-05-26T15:33:20.434Z,33.80
2019-05-26T15:35:48.884Z,33.70
2019-05-26T15:38:17.401Z,33.20
2019-05-26T15:40:46.026Z,33.60
2019-05-26T15:43:16.155Z,33.20
2019-05-26T15:45:44.665Z,35.00
2019-05-26T15:48:13.089Z,36.00
2019-05-26T15:50:41.539Z,37.30
2019-05-26T15:53:09.961Z,38.40
2019-05-26T15:55:40.067Z,37.70
2019-05-26T15:58:08.578Z,38.80
2019-05-26T16:00:37.034Z,38.80
2019-05-26T16:03:05.479Z,39.20
2019-05-26T16:05:33.948Z,39.80
2019-05-26T16:08:02.406Z,39.50
2019-05-26T16:10:30.844Z,40.00
2019-05-26T16:12:59.280Z,40.20
2019-05-26T16:15:27.835Z,39.80
2019-05-26T16:17:56.316Z,39.10
2019-05-26T16:20:24.747Z,39.00
2019-05-26T16:22:53.174Z,39.90
2019-05-26T16:25:21.602Z,40.50
2019-05-26T16:27:50.035Z,40.80
2019-05-26T16:30:18.595Z,40.50
2019-05-26T16:32:47.027Z,40.50
2019-05-26T16:35:15.633Z,40.40
2019-05-26T16:37:44.069Z,40.30
2019-05-26T16:40:12.656Z,40.10
2019-05-26T16:42:41.093Z,39.90
2019-05-26T16:45:10.076Z,40.00
2019-05-26T16:47:38.475Z,40.10
2019-05-26T16:50:08.110Z,40.40
2019-05-26T16:52:36.536Z,40.60
2019-05-26T16:55:06.609Z,40.40
2019-05-26T16:57:35.043Z,40.40
2019-05-26T17:00:04.263Z,40.30
2019-05-26T17:02:32.684Z,41.00
2019-05-26T17:05:01.116Z,40.60
2019-05-26T17:07:29.642Z,40.70
2019-05-26T17:09:58.141Z,40.80
2019-05-26T17:12:27.336Z,40.70
2019-05-26T17:14:55.784Z,40.90
2019-05-26T17:17:24.204Z,40.20
2019-05-26T17:19:52.964Z,40.50
2019-05-26T17:22:21.552Z,41.40
2019-05-26T17:24:50.012Z,41.50
2019-05-26T17:27:18.722Z,41.40
2019-05-26T17:29:47.149Z,41.80
2019-05-26T17:32:15.601Z,42.10
2019-05-26T17:34:44.046Z,42.50
2019-05-26T17:37:12.481Z,43.80
2019-05-26T17:39:40.904Z,43.80
2019-05-26T17:42:09.446Z,44.90
2019-05-26T17:44:37.926Z,46.10
2019-05-26T17:47:06.572Z,46.40
2019-05-26T17:49:35.001Z,46.70
2019-05-26T17:52:03.523Z,47.40
2019-05-26T17:54:32.007Z,48.60
2019-05-26T17:57:00.473Z,49.00
2019-05-26T17:59:28.975Z,48.90
2019-05-26T18:01:57.411Z,49.60
2019-05-26T18:04:25.846Z,48.70
2019-05-26T18:06:54.377Z,48.50
2019-05-26T18:09:22.804Z,49.50
2019-05-26T18:11:51.238Z,50.10
2019-05-26T18:14:19.741Z,50.90
2019-05-26T18:16:48.186Z,50.90
2019-05-26T18:19:16.618Z,50.20
2019-05-26T18:21:45.133Z,50.00
2019-05-26T18:24:13.565Z,50.10
2019-05-26T18:26:42.035Z,50.80
2019-05-26T18:29:10.534Z,51.60
2019-05-26T18:31:38.983Z,51.10
2019-05-26T18:34:07.495Z,51.00
2019-05-26T18:36:36.051Z,50.80
2019-05-26T18:39:07.560Z,50.90
2019-05-26T18:41:35.996Z,51.00
2019-05-26T18:44:04.514Z,51.40
2019-05-26T18:46:33.023Z,50.40
2019-05-26T18:49:01.454Z,49.80
2019-05-26T18:51:29.879Z,50.40
2019-05-26T18:53:58.325Z,51.60
2019-05-26T18:56:26.752Z,52.40
2019-05-26T18:58:55.177Z,53.30
2019-05-26T19:01:23.645Z,53.20
2019-05-26T19:03:52.072Z,54.00
2019-05-26T19:06:20.627Z,54.20
2019-05-26T19:08:49.525Z,54.50
2019-05-26T19:11:18.037Z,54.00
2019-05-26T19:13:46.562Z,54.80
2019-05-26T19:16:14.994Z,55.00
2019-05-26T19:18:43.463Z,54.60
2019-05-26T19:21:11.953Z,55.10
2019-05-26T19:23:40.469Z,55.00
2019-05-26T19:26:09.004Z,55.10
2019-05-26T19:28:37.563Z,55.60
2019-05-26T19:31:06.060Z,56.00
2019-05-26T19:33:34.538Z,56.00
2019-05-26T19:36:08.744Z,56.10
2019-05-26T19:38:33.324Z,56.30
2019-05-26T19:41:01.830Z,56.60
2019-05-26T19:43:30.294Z,56.90
2019-05-26T19:45:58.753Z,57.10
2019-05-26T19:48:36.580Z,57.30
2019-05-26T19:50:57.547Z,57.80
2019-05-26T19:53:26.004Z,58.20
2019-05-26T19:55:54.524Z,58.60
2019-05-26T19:58:22.972Z,58.70
2019-05-26T20:00:51.456Z,58.90
2019-05-26T20:03:19.885Z,59.20
2019-05-26T20:05:48.317Z,59.50
2019-05-26T20:08:16.839Z,60.00
2019-05-26T20:10:45.323Z,60.60
2019-05-26T20:13:13.802Z,60.70
2019-05-26T20:15:42.244Z,61.10
2019-05-26T20:18:10.700Z,61.10
2019-05-26T20:20:39.127Z,60.70
2019-05-26T20:23:07.628Z,60.50
2019-05-26T20:25:36.427Z,60.70
2019-05-26T20:28:04.936Z,60.90
2019-05-26T20:30:33.408Z,61.10
2019-05-26T20:33:01.832Z,61.30
2019-05-26T20:35:30.383Z,62.00
2019-05-26T20:37:59.005Z,63.10
2019-05-26T20:40:27.510Z,63.50
2019-05-26T20:42:55.944Z,63.70
2019-05-26T20:45:24.632Z,63.60
2019-05-26T20:47:53.938Z,63.50
2019-05-26T20:50:29.154Z,63.10
2019-05-26T20:52:54.520Z,62.80
2019-05-26T20:55:23.167Z,63.00
2019-05-26T20:57:51.694Z,63.40
2019-05-26T21:00:21.771Z,63.30
2019-05-26T21:02:50.277Z,63.60
2019-05-26T21:05:18.883Z,63.50
2019-05-26T21:07:47.325Z,63.50
2019-05-26T21:10:16.281Z,63.60
2019-05-26T21:12:44.789Z,63.80
2019-05-26T21:15:13.584Z,64.10
2019-05-26T21:17:42.121Z,63.70
2019-05-26T21:20:11.041Z,63.40
2019-05-26T21:22:39.469Z,63.00
2019-05-26T21:25:08.647Z,63.30
2019-05-26T21:27:37.168Z,64.00
2019-05-26T21:30:09.223Z,62.40
2019-05-26T21:32:37.727Z,62.10
2019-05-26T21:35:06.806Z,63.00
2019-05-26T21:37:35.299Z,64.30
2019-05-26T21:40:05.229Z,64.40
2019-05-26T21:42:33.644Z,64.10
2019-05-26T21:45:02.092Z,64.60
2019-05-26T21:47:30.541Z,64.20
2019-05-26T21:49:58.986Z,64.60
2019-05-26T21:52:27.421Z,64.60
2019-05-26T21:54:55.849Z,64.70
2019-05-26T21:57:24.284Z,64.90
2019-05-26T21:59:52.717Z,64.70
2019-05-26T22:02:21.152Z,64.60
2019-05-26T22:04:49.586Z,65.10
2019-05-26T22:07:18.020Z,65.40
2019-05-26T22:09:46.488Z,65.90
2019-05-26T22:12:14.968Z,65.60
2019-05-26T22:14:43.445Z,65.70
2019-05-26T22:17:11.880Z,65.50
2019-05-26T22:19:40.316Z,65.60
2019-05-26T22:22:08.751Z,65.50
2019-05-26T22:24:37.214Z,66.60
2019-05-26T22:27:06.011Z,65.90
2019-05-26T22:29:34.439Z,65.40
2019-05-26T22:32:02.929Z,65.20
2019-05-26T22:34:31.359Z,64.50
2019-05-26T22:36:59.811Z,64.30
2019-05-26T22:39:28.537Z,65.10
2019-05-26T22:41:57.114Z,65.90
2019-05-26T22:44:25.553Z,66.10
2019-05-26T22:46:54.060Z,65.90
2019-05-26T22:49:22.534Z,67.50
2019-05-26T22:51:50.987Z,66.60
2019-05-26T22:54:19.412Z,66.40
2019-05-26T22:56:47.853Z,66.10
2019-05-26T22:59:16.278Z,65.90
